Time;durP1;ratioP1;P1;durP2;ratioP2;P2;SDS_P1;SDS_P2;PMS_P1;PMS_P2;Temp;Humidity;BMP_temperature;BMP_pressure;BME280_temperature;BME280_humidity;BME280_pressure;Samples;Min_cycle;Max_cycle;Signal;HPM_P1;HPM_P2
2022/05/19 00:02:25;;;;;;;4.50;1.60;;;;;;;24.78;33.55;97407.59;5015957;28;20022;-32
2022/05/19 00:04:50;;;;;;;2.00;1.20;;;;;;;24.88;33.23;97415.22;5015916;28;20029;-32
2022/05/19 00:07:16;;;;;;;2.13;1.20;;;;;;;24.85;33.60;97412.69;5015887;28;20030;-33
2022/05/19 00:09:42;;;;;;;2.88;1.52;;;;;;;24.79;33.48;97409.13;5016110;28;20032;-32
2022/05/19 00:12:16;;;;;;;2.67;1.25;;;;;;;24.88;33.18;97409.66;5015666;28;20030;-32
2022/05/19 00:14:41;;;;;;;3.03;1.50;;;;;;;24.89;33.27;97402.09;5015795;28;20049;-31
2022/05/19 00:17:07;;;;;;;2.90;1.50;;;;;;;24.92;33.27;97406.66;5015654;28;20026;-32
2022/05/19 00:19:33;;;;;;;2.90;1.55;;;;;;;24.90;33.19;97404.38;5015655;28;20361;-33
2022/05/19 00:21:58;;;;;;;1.83;1.58;;;;;;;24.85;33.43;97404.38;5015896;28;20080;-32
2022/05/19 00:24:24;;;;;;;2.22;1.45;;;;;;;24.82;33.43;97397.78;5015539;28;20022;-32
2022/05/19 00:26:49;;;;;;;2.08;1.50;;;;;;;24.79;33.60;97414.66;5015553;28;20037;-32
2022/05/19 00:29:14;;;;;;;2.22;1.65;;;;;;;24.81;33.20;97417.72;5015728;28;20113;-32
2022/05/19 00:31:40;;;;;;;1.77;1.50;;;;;;;24.80;33.36;97419.72;5015648;28;20025;-32
2022/05/19 00:34:06;;;;;;;3.33;1.50;;;;;;;24.72;33.67;97415.16;5015166;28;20057;-32
2022/05/19 00:36:32;;;;;;;2.08;1.50;;;;;;;24.79;33.21;97409.88;5015400;28;20369;-32
2022/05/19 00:38:58;;;;;;;4.30;1.95;;;;;;;24.83;33.62;97417.97;5015335;28;20259;-32
2022/05/19 00:41:25;;;;;;;1.98;1.58;;;;;;;24.79;33.29;97414.66;5015277;28;20022;-32
2022/05/19 00:44:02;;;;;;;3.38;1.38;;;;;;;24.86;33.03;97419.72;5015342;28;20026;-32
2022/05/19 00:46:41;;;;;;;2.65;1.50;;;;;;;24.85;33.10;97415.47;5015534;28;20029;-32
2022/05/19 00:49:15;;;;;;;2.67;1.60;;;;;;;24.75;33.28;97411.38;5015237;28;20045;-32
2022/05/19 00:51:59;;;;;;;3.08;1.70;;;;;;;24.73;33.36;97408.34;5015268;28;20032;-31
2022/05/19 00:54:32;;;;;;;4.25;1.50;;;;;;;24.52;33.62;97411.25;5015411;28;20017;-31
2022/05/19 00:56:57;;;;;;;1.88;1.60;;;;;;;24.76;33.19;97410.09;5015251;28;20065;-31
2022/05/19 00:59:40;;;;;;;3.00;1.65;;;;;;;24.72;33.26;97409.59;5014949;28;20057;-32
2022/05/19 01:02:09;;;;;;;2.33;1.48;;;;;;;24.78;33.15;97410.38;5015335;28;20396;-32
2022/05/19 01:04:53;;;;;;;1.70;1.45;;;;;;;24.73;33.41;97416.69;5014919;28;20037;-32
2022/05/19 01:07:46;;;;;;;2.38;1.70;;;;;;;24.74;33.20;97418.16;5014690;28;20064;-33
2022/05/19 01:10:12;;;;;;;1.55;1.38;;;;;;;24.68;33.22;97416.13;5014832;28;20026;-31
2022/05/19 01:12:39;;;;;;;2.03;1.45;;;;;;;24.56;33.40;97417.34;5014434;28;20868;-32
2022/05/19 01:15:05;;;;;;;2.25;1.48;;;;;;;24.54;33.26;97421.84;5029843;28;20049;-32
2022/05/19 01:17:34;;;;;;;2.95;1.45;;;;;;;24.63;33.54;97416.09;5029829;28;20025;-32
2022/05/19 01:20:09;;;;;;;3.33;1.70;;;;;;;24.61;33.26;97411.03;5014507;28;20025;-32
2022/05/19 01:22:50;;;;;;;4.68;1.80;;;;;;;24.65;33.33;97414.34;5014599;28;20041;-32
2022/05/19 01:25:53;;;;;;;2.83;1.30;;;;;;;24.60;33.34;97419.88;5014520;28;20022;-31
2022/05/19 01:28:19;;;;;;;3.53;1.40;;;;;;;24.55;33.12;97424.13;5014346;28;20461;-32
2022/05/19 01:30:45;;;;;;;1.88;1.52;;;;;;;24.62;33.48;97418.13;5014427;28;20025;-32
2022/05/19 01:33:11;;;;;;;2.10;1.33;;;;;;;24.59;33.28;97408.03;5014331;28;20053;-32
2022/05/19 01:35:37;;;;;;;2.38;1.42;;;;;;;24.58;33.14;97416.84;5014282;28;20468;-31
2022/05/19 01:38:08;;;;;;;3.53;1.30;;;;;;;24.62;33.42;97423.66;5014260;28;20033;-32
2022/05/19 01:41:01;;;;;;;2.08;1.38;;;;;;;24.51;33.46;97420.06;5014243;28;20041;-31
2022/05/19 01:43:47;;;;;;;;;;;;;;;24.45;33.45;97422.81;5014794;28;20033;-31
2022/05/19 01:46:37;;;;;;;4.55;1.45;;;;;;;24.43;33.31;97422.56;4993413;28;19956;-32
2022/05/19 01:49:22;;;;;;;2.20;1.40;;;;;;;24.49;33.28;97437.19;5013569;28;20037;-31
2022/05/19 01:52:10;;;;;;;1.42;1.23;;;;;;;24.46;33.33;97429.91;5014119;28;20072;-32
2022/05/19 01:54:47;;;;;;;4.35;1.63;;;;;;;24.52;33.42;97427.13;5014147;28;20018;-32
2022/05/19 01:57:24;;;;;;;2.85;1.60;;;;;;;24.49;33.06;97431.66;5013882;28;20026;-32
2022/05/19 01:59:52;;;;;;;2.08;1.48;;;;;;;24.51;33.29;97429.16;5013396;28;20030;-32
2022/05/19 02:02:43;;;;;;;2.75;1.60;;;;;;;24.42;33.52;97431.38;5014131;28;20030;-32
2022/05/19 02:05:20;;;;;;;3.63;1.50;;;;;;;24.49;33.18;97437.19;5011669;28;20046;-31
2022/05/19 02:07:50;;;;;;;2.78;1.65;;;;;;;24.33;33.46;97424.00;5014057;28;20349;-33
2022/05/19 02:10:25;;;;;;;1.42;1.33;;;;;;;24.39;33.22;97438.66;5013796;28;20029;-32
2022/05/19 02:12:51;;;;;;;2.67;1.40;;;;;;;24.32;33.55;97433.56;5013658;28;20050;-31
2022/05/19 02:15:20;;;;;;;2.13;1.25;;;;;;;24.45;33.42;97447.03;5013783;28;20080;-31
2022/05/19 02:17:47;;;;;;;3.20;1.50;;;;;;;24.41;33.15;97446.47;5013549;28;20026;-32
2022/05/19 02:20:15;;;;;;;1.83;1.23;;;;;;;24.41;33.15;97446.47;5013814;28;20022;-32
2022/05/19 02:22:43;;;;;;;2.72;1.20;;;;;;;24.38;33.41;97453.00;5013437;28;20033;-32
2022/05/19 02:25:25;;;;;;;6.00;1.40;;;;;;;24.37;33.37;97449.47;5013495;28;20079;-31
2022/05/19 02:28:03;;;;;;;2.47;1.70;;;;;;;24.40;33.30;97450.50;5013643;28;20116;-32
2022/05/19 02:30:34;;;;;;;2.35;1.33;;;;;;;24.41;32.83;97463.88;5013755;28;20037;-32
2022/05/19 02:33:00;;;;;;;1.80;1.40;;;;;;;24.37;33.36;97452.25;5028850;28;20376;-31
2022/05/19 02:35:26;;;;;;;2.03;1.52;;;;;;;24.36;33.20;97445.19;5013459;28;20018;-32
2022/05/19 02:37:53;;;;;;;2.53;1.70;;;;;;;24.34;33.55;97439.41;5013236;28;20029;-32
2022/05/19 02:40:21;;;;;;;2.28;1.48;;;;;;;24.37;33.49;97449.47;5013449;28;20030;-32
2022/05/19 02:42:46;;;;;;;2.45;1.50;;;;;;;24.32;33.71;97450.22;5013372;28;20051;-32
2022/05/19 02:45:14;;;;;;;4.03;1.50;;;;;;;24.33;33.28;97446.19;5013240;28;20487;-32
2022/05/19 02:47:40;;;;;;;2.70;2.03;;;;;;;24.27;33.46;97442.59;5013391;28;20108;-32
2022/05/19 02:50:06;;;;;;;1.65;1.33;;;;;;;24.25;33.53;97445.09;5013306;28;20140;-32
2022/05/19 02:52:32;;;;;;;2.25;1.40;;;;;;;24.31;33.23;97445.91;5013272;28;20037;-32
2022/05/19 02:54:57;;;;;;;3.35;1.75;;;;;;;24.19;33.45;97441.53;5013539;28;20018;-32
2022/05/19 02:57:23;;;;;;;3.53;1.60;;;;;;;24.28;33.44;97441.34;5013126;28;20073;-32
2022/05/19 02:59:48;;;;;;;2.28;1.65;;;;;;;24.24;33.60;97447.13;5013194;28;20109;-32
2022/05/19 03:02:14;;;;;;;3.70;1.42;;;;;;;24.21;33.58;97447.34;5013117;28;20026;-32
2022/05/19 03:04:40;;;;;;;3.33;1.63;;;;;;;24.32;33.36;97452.97;5013193;28;20030;-32
2022/05/19 03:07:06;;;;;;;3.72;1.90;;;;;;;24.31;33.53;97451.47;5013307;28;20068;-31
2022/05/19 03:09:32;;;;;;;2.25;1.52;;;;;;;24.24;33.51;97460.22;5013367;28;20022;-32
2022/05/19 03:11:57;;;;;;;2.15;1.30;;;;;;;24.17;33.70;97471.75;5015305;28;20022;-31
2022/05/19 03:14:23;;;;;;;3.53;1.75;;;;;;;24.24;33.42;97463.00;5016650;28;20045;-32
2022/05/19 03:16:48;;;;;;;2.97;1.50;;;;;;;24.23;33.53;97470.53;5016881;28;20057;-32
2022/05/19 03:19:15;;;;;;;2.70;1.48;;;;;;;24.23;33.45;97469.81;5016982;28;20025;-33
2022/05/19 03:21:42;;;;;;;2.70;1.25;;;;;;;24.18;33.67;97468.47;5016692;28;20033;-32
2022/05/19 03:24:10;;;;;;;2.78;1.50;;;;;;;24.14;33.54;97470.69;5016771;28;20041;-33
2022/05/19 03:26:36;;;;;;;5.32;1.60;;;;;;;24.14;33.81;97473.47;5016789;28;20033;-32
2022/05/19 03:29:03;;;;;;;2.63;1.65;;;;;;;24.10;33.86;97466.66;5016618;28;20018;-32
2022/05/19 03:31:28;;;;;;;4.75;1.73;;;;;;;24.09;33.79;97470.69;5016753;28;20041;-32
2022/05/19 03:33:54;;;;;;;3.35;1.40;;;;;;;24.18;33.71;97467.72;5016490;28;20025;-33
2022/05/19 03:36:20;;;;;;;2.38;2.00;;;;;;;24.21;33.29;97461.19;5016501;28;20022;-32
2022/05/19 03:38:46;;;;;;;3.53;1.55;;;;;;;24.08;33.71;97460.84;5016371;28;20021;-32
2022/05/19 03:41:12;;;;;;;4.80;1.60;;;;;;;24.13;33.70;97471.94;5016324;28;20104;-33
2022/05/19 03:43:37;;;;;;;2.60;1.30;;;;;;;24.04;33.91;97468.59;5016496;28;20034;-32
2022/05/19 03:46:03;;;;;;;3.53;1.50;;;;;;;24.11;33.85;97468.19;5016110;28;20112;-32
2022/05/19 03:48:34;;;;;;;2.22;1.50;;;;;;;24.10;33.55;97466.66;5016321;28;20070;-32
2022/05/19 03:51:01;;;;;;;1.80;1.30;;;;;;;24.03;34.02;97476.16;5016372;28;20034;-32
2022/05/19 03:53:26;;;;;;;2.90;1.50;;;;;;;24.06;33.66;97482.75;5016177;28;20117;-32
2022/05/19 03:55:54;;;;;;;1.85;1.42;;;;;;;23.99;34.01;97484.69;5016148;28;20480;-32
2022/05/19 03:58:19;;;;;;;1.75;1.45;;;;;;;23.98;34.10;97480.38;5016121;28;20022;-32
2022/05/19 04:00:45;;;;;;;3.08;2.00;;;;;;;23.98;33.96;97479.66;5016059;28;20076;-32
2022/05/19 04:03:11;;;;;;;2.20;1.75;;;;;;;24.04;33.58;97483.22;5015888;28;20065;-32
2022/05/19 04:05:36;;;;;;;3.33;1.63;;;;;;;24.04;33.79;97490.78;5015976;28;20105;-32
2022/05/19 04:08:01;;;;;;;2.40;1.70;;;;;;;23.99;33.99;97495.00;5015949;28;20480;-32
2022/05/19 04:10:27;;;;;;;3.05;2.13;;;;;;;23.99;34.03;97493.00;5015866;28;20029;-33
2022/05/19 04:12:53;;;;;;;2.22;1.70;;;;;;;24.05;33.89;97497.84;5015479;28;20056;-32
2022/05/19 04:15:19;;;;;;;5.53;1.35;;;;;;;24.03;34.01;97501.09;5015846;28;20025;-32
2022/05/19 04:17:44;;;;;;;2.60;1.58;;;;;;;24.03;34.07;97503.09;5015807;28;20060;-32
2022/05/19 04:20:12;;;;;;;2.42;1.58;;;;;;;23.97;33.94;97512.16;5015651;28;20045;-32
2022/05/19 04:22:38;;;;;;;3.20;1.40;;;;;;;23.98;33.92;97512.91;5015282;28;20022;-31
2022/05/19 04:25:06;;;;;;;2.17;1.60;;;;;;;23.92;34.20;97515.63;5015304;28;20021;-31
2022/05/19 04:27:31;;;;;;;4.25;2.22;;;;;;;24.03;33.85;97516.97;5015500;28;20127;-33
2022/05/19 04:29:57;;;;;;;4.78;1.75;;;;;;;23.98;34.09;97527.50;5012762;28;20479;-33
2022/05/19 04:32:22;;;;;;;3.17;1.60;;;;;;;24.02;34.13;97526.53;5013519;28;20030;-32
2022/05/19 04:34:48;;;;;;;2.55;1.60;;;;;;;24.00;34.09;97530.53;5013331;28;20460;-33
2022/05/19 04:37:14;;;;;;;3.40;1.70;;;;;;;23.96;34.26;97535.56;5013349;28;20045;-32
2022/05/19 04:39:40;;;;;;;3.42;1.80;;;;;;;23.99;34.17;97542.88;5013123;28;20036;-32
2022/05/19 04:42:09;;;;;;;9.05;1.73;;;;;;;23.93;34.32;97544.84;5044223;28;20095;-32
2022/05/19 04:44:36;;;;;;;5.55;2.30;;;;;;;24.01;34.23;97553.47;5013252;28;20678;-32
2022/05/19 04:47:03;;;;;;;2.78;1.65;;;;;;;23.96;34.24;97554.19;5013324;28;20041;-33
2022/05/19 04:49:28;;;;;;;3.03;1.75;;;;;;;23.93;34.10;97557.94;5013261;28;20349;-32
2022/05/19 04:51:54;;;;;;;5.03;1.70;;;;;;;23.92;34.14;97559.94;5012929;28;20029;-32
2022/05/19 04:54:19;;;;;;;4.85;1.98;;;;;;;23.98;34.47;97562.78;5013194;28;20018;-32
2022/05/19 04:56:45;;;;;;;3.78;1.70;;;;;;;23.94;34.11;97570.53;5013058;28;20083;-33
2022/05/19 04:59:14;;;;;;;7.50;2.20;;;;;;;23.85;34.40;97568.69;5012958;28;20393;-32
2022/05/19 05:01:44;;;;;;;4.05;1.90;;;;;;;23.87;34.54;97574.47;5012873;28;20058;-32
2022/05/19 05:04:10;;;;;;;2.85;1.73;;;;;;;23.91;34.13;97563.97;5012608;28;20029;-33
2022/05/19 05:06:35;;;;;;;3.47;1.90;;;;;;;23.95;34.38;97578.38;5012800;28;20376;-33
2022/05/19 05:09:01;;;;;;;3.47;1.50;;;;;;;23.88;34.52;97581.56;5012881;28;20037;-33
2022/05/19 05:11:26;;;;;;;2.42;1.60;;;;;;;23.90;34.45;97587.38;5012917;28;20040;-33
2022/05/19 05:13:52;;;;;;;3.80;1.92;;;;;;;23.90;34.66;97595.69;5012641;28;20056;-32
2022/05/19 05:16:18;;;;;;;3.97;1.55;;;;;;;23.98;34.21;97596.75;5012498;28;20375;-32
2022/05/19 05:18:43;;;;;;;2.70;1.85;;;;;;;24.00;34.22;97597.03;5012700;28;20048;-32
2022/05/19 05:21:11;;;;;;;3.13;1.70;;;;;;;23.89;34.77;97604.47;5012350;28;20076;-32
2022/05/19 05:23:37;;;;;;;4.20;1.95;;;;;;;23.92;34.52;97604.28;5010865;28;20534;-33
2022/05/19 05:26:03;;;;;;;3.72;1.80;;;;;;;23.91;34.30;97599.22;5012286;28;20030;-32
2022/05/19 05:28:30;;;;;;;2.65;1.60;;;;;;;23.89;34.65;97594.16;5012174;28;20038;-32
2022/05/19 05:30:55;;;;;;;4.38;1.63;;;;;;;23.77;34.94;97603.59;5044198;28;20057;-32
2022/05/19 05:33:20;;;;;;;4.88;1.88;;;;;;;23.85;34.64;97606.72;5011983;28;20488;-32
2022/05/19 05:35:46;;;;;;;2.45;1.52;;;;;;;23.86;34.71;97608.97;5012263;28;20021;-32
2022/05/19 05:38:11;;;;;;;7.22;1.95;;;;;;;23.89;34.49;97613.56;5012390;28;20029;-32
2022/05/19 05:40:37;;;;;;;3.67;1.65;;;;;;;23.78;34.78;97620.97;5012077;28;20498;-32
2022/05/19 05:43:07;;;;;;;4.00;1.85;;;;;;;23.75;34.97;97617.16;5012374;28;20387;-33
2022/05/19 05:45:33;;;;;;;4.00;1.80;;;;;;;23.82;34.73;97611.22;5012064;28;20453;-33
2022/05/19 05:47:58;;;;;;;8.02;2.10;;;;;;;23.82;34.99;97614.00;5012134;28;20038;-31
2022/05/19 05:50:24;;;;;;;8.05;2.03;;;;;;;23.75;35.12;97619.16;5012131;28;20458;-32
2022/05/19 05:52:49;;;;;;;5.15;2.17;;;;;;;23.82;34.83;97619.53;5011915;28;20506;-32
2022/05/19 05:55:15;;;;;;;4.13;1.92;;;;;;;23.81;34.69;97620.78;5011949;28;20069;-32
2022/05/19 05:57:40;;;;;;;8.32;1.92;;;;;;;23.82;34.62;97618.75;5011793;28;20025;-33
2022/05/19 06:00:08;;;;;;;4.85;2.10;;;;;;;23.74;35.08;97623.22;5012205;28;20370;-32
2022/05/19 06:02:34;;;;;;;6.60;2.10;;;;;;;23.81;34.71;97629.09;5011828;28;20578;-32
2022/05/19 06:04:59;;;;;;;4.60;1.50;;;;;;;23.79;34.70;97628.81;5011623;28;20109;-32
2022/05/19 06:07:27;;;;;;;2.95;1.65;;;;;;;23.76;35.13;97626.22;5011923;28;20022;-32
2022/05/19 06:09:53;;;;;;;2.70;1.42;;;;;;;23.82;34.68;97630.59;5011606;28;20592;-32
2022/05/19 06:12:19;;;;;;;3.90;1.73;;;;;;;23.79;34.77;97630.81;5011549;28;20401;-32
2022/05/19 06:14:45;;;;;;;4.45;1.70;;;;;;;23.82;34.75;97630.59;5011750;28;20029;-33
2022/05/19 06:17:10;;;;;;;2.75;1.92;;;;;;;23.74;34.97;97632.25;5011400;28;20040;-33
2022/05/19 06:19:36;;;;;;;4.32;1.80;;;;;;;23.80;35.23;97637.88;5011655;28;20432;-32
2022/05/19 06:22:02;;;;;;;9.68;2.22;;;;;;;23.83;35.02;97645.22;5011436;28;20033;-32
2022/05/19 06:24:28;;;;;;;5.93;1.77;;;;;;;23.85;34.88;97646.25;5009612;28;20037;-32
2022/05/19 06:26:53;;;;;;;5.10;1.98;;;;;;;23.77;35.19;97650.69;5011798;28;20026;-32
2022/05/19 06:29:19;;;;;;;5.20;1.95;;;;;;;23.76;35.19;97656.69;5011400;28;20787;-32
2022/05/19 06:31:45;;;;;;;5.82;1.70;;;;;;;23.82;35.25;97657.53;5011626;28;20022;-35
2022/05/19 06:34:11;;;;;;;6.03;2.03;;;;;;;23.83;34.93;97662.59;5011674;28;20041;-32
2022/05/19 06:36:36;;;;;;;9.10;1.60;;;;;;;23.77;35.19;97664.53;5043240;28;20030;-32
2022/05/19 06:39:03;;;;;;;2.95;1.63;;;;;;;23.80;35.02;97663.56;5011532;28;20037;-32
2022/05/19 06:44:13;;;;;;;3.83;1.65;;;;;;;23.82;34.81;97668.63;5011144;28;20044;-32
2022/05/19 06:46:38;;;;;;;2.58;1.77;;;;;;;23.79;35.34;97664.06;5016730;28;20029;-34
2022/05/19 06:49:04;;;;;;;3.63;1.50;;;;;;;23.79;35.03;97667.59;5017454;28;20095;-32
2022/05/19 06:51:31;;;;;;;3.05;1.58;;;;;;;23.76;35.08;97665.78;5017532;28;20030;-32
2022/05/19 06:53:56;;;;;;;9.13;1.60;;;;;;;23.77;35.15;97672.06;5017308;28;20030;-32
2022/05/19 06:56:22;;;;;;;3.92;1.73;;;;;;;23.81;35.23;97676.19;5017056;28;20072;-32
2022/05/19 06:58:48;;;;;;;2.42;1.70;;;;;;;23.80;35.08;97682.19;5017170;28;20105;-33
2022/05/19 07:01:14;;;;;;;4.28;1.90;;;;;;;23.79;35.21;97684.22;5017097;28;20042;-32
2022/05/19 07:03:39;;;;;;;3.13;1.60;;;;;;;23.75;35.34;97686.41;5017076;28;20088;-32
2022/05/19 07:06:05;;;;;;;4.32;2.33;;;;;;;23.75;35.20;97693.97;5016444;28;20026;-32
2022/05/19 07:08:30;;;;;;;2.60;1.70;;;;;;;23.81;35.38;97692.78;5016765;28;20033;-32
2022/05/19 07:10:56;;;;;;;4.00;1.73;;;;;;;23.78;35.03;97690.22;5016091;28;20046;-32
2022/05/19 07:13:21;;;;;;;3.30;1.60;;;;;;;23.28;36.32;97687.50;5016220;28;20053;-34
2022/05/19 07:15:47;;;;;;;5.38;1.90;;;;;;;22.90;36.51;97688.41;5016775;28;20024;-34
2022/05/19 07:18:12;;;;;;;2.83;1.58;;;;;;;22.45;37.54;97695.94;5015508;28;20532;-34
2022/05/19 07:20:43;;;;;;;4.25;1.83;;;;;;;22.61;37.01;97696.72;5016835;28;20033;-33
2022/05/19 07:23:14;;;;;;;6.95;1.95;;;;;;;23.20;36.07;97686.38;5016516;28;20021;-32
2022/05/19 07:25:40;;;;;;;4.97;1.60;;;;;;;23.50;35.25;97700.91;5016176;28;20460;-33
2022/05/19 07:28:07;;;;;;;3.13;1.95;;;;;;;23.55;35.13;97694.72;5016430;28;20029;-32
2022/05/19 07:30:33;;;;;;;2.30;1.58;;;;;;;23.62;35.37;97702.59;5016543;28;20075;-32
2022/05/19 07:32:59;;;;;;;4.80;1.88;;;;;;;23.64;35.33;97697.34;5016536;28;20113;-33
2022/05/19 07:35:24;;;;;;;3.28;1.45;;;;;;;23.69;35.63;97709.75;5016530;28;20033;-32
2022/05/19 07:37:50;;;;;;;3.13;1.65;;;;;;;23.73;35.53;97705.53;5016618;28;20030;-33
2022/05/19 07:40:16;;;;;;;2.30;1.50;;;;;;;23.72;35.37;97701.25;5016444;28;20040;-32
2022/05/19 07:42:42;;;;;;;5.25;1.63;;;;;;;23.73;35.49;97702.78;5016352;28;20083;-32
2022/05/19 07:45:08;;;;;;;2.70;1.70;;;;;;;23.71;35.15;97702.50;5016275;28;20034;-32
2022/05/19 07:47:34;;;;;;;3.50;2.05;;;;;;;23.70;35.53;97702.97;5016061;28;20029;-32
2022/05/19 07:49:59;;;;;;;2.80;1.67;;;;;;;23.71;35.52;97704.50;5016431;28;20061;-33
2022/05/19 07:52:26;;;;;;;5.75;1.83;;;;;;;23.19;35.89;97702.22;5015965;28;20056;-31
2022/05/19 07:54:53;;;;;;;9.02;2.00;;;;;;;22.68;36.80;97716.44;5016043;28;20076;-33
2022/05/19 07:57:19;;;;;;;4.97;1.63;;;;;;;23.04;35.84;97707.00;5015552;28;20468;-33
2022/05/19 07:59:44;;;;;;;3.03;1.60;;;;;;;23.36;35.72;97707.25;5016026;28;20034;-33
2022/05/19 08:02:12;;;;;;;5.15;1.70;;;;;;;23.53;35.30;97719.34;5015908;28;20488;-33
2022/05/19 08:04:38;;;;;;;3.85;1.55;;;;;;;23.52;35.37;97713.03;5015586;28;20491;-35
2022/05/19 08:07:04;;;;;;;9.45;1.88;;;;;;;23.59;35.29;97720.97;5016193;28;20026;-34
2022/05/19 08:12:16;;;;;;;5.68;1.88;;;;;;;23.57;35.13;97731.75;5015685;28;20087;-36
2022/05/19 08:17:25;;;;;;;6.18;2.00;;;;;;;23.62;35.45;97727.53;5015782;28;20411;-33
2022/05/19 08:19:51;;;;;;;2.60;1.83;;;;;;;23.52;35.48;97728.91;5015959;28;20026;-33
2022/05/19 08:22:17;;;;;;;5.53;1.90;;;;;;;23.58;35.52;97732.53;5015450;28;20144;-33
2022/05/19 08:24:49;;;;;;;2.78;1.63;;;;;;;23.52;35.55;97728.91;5015539;28;20026;-33
2022/05/19 08:27:14;;;;;;;2.38;1.60;;;;;;;23.56;35.72;97740.53;5015735;28;20022;-33
2022/05/19 08:29:40;;;;;;;5.18;1.65;;;;;;;23.48;35.37;97733.84;5015459;28;20077;-33
2022/05/19 08:32:05;;;;;;;2.05;1.40;;;;;;;23.17;35.91;97737.16;5015678;28;20026;-32
2022/05/19 08:34:32;;;;;;;3.40;1.75;;;;;;;22.99;35.88;97731.84;5014013;28;20366;-33
2022/05/19 08:36:57;;;;;;;3.60;1.50;;;;;;;23.18;35.96;97738.69;5015351;28;20440;-34
2022/05/19 08:39:25;;;;;;;2.33;1.70;;;;;;;23.19;35.59;97732.66;5015316;28;20025;-33
2022/05/19 08:41:58;;;;;;;4.18;1.50;;;;;;;23.32;35.41;97742.66;5013947;28;20394;-33
2022/05/19 08:44:37;;;;;;;3.35;1.65;;;;;;;23.48;35.61;97742.16;5014260;28;20029;-34
2022/05/19 08:47:05;;;;;;;4.13;1.70;;;;;;;23.44;35.68;97747.13;5013704;28;20030;-33
2022/05/19 08:49:57;;;;;;;3.50;1.52;;;;;;;23.35;35.86;97741.72;5015056;28;20075;-34
2022/05/19 08:52:25;;;;;;;2.13;1.40;;;;;;;23.40;35.67;97743.78;5015354;28;20113;-33
2022/05/19 08:54:55;;;;;;;2.22;1.60;;;;;;;23.40;35.16;97749.31;5015103;28;20030;-33
2022/05/19 08:57:24;;;;;;;3.42;2.13;;;;;;;23.26;35.95;97748.09;5015003;28;20096;-34
2022/05/19 09:00:01;;;;;;;4.22;1.38;;;;;;;23.14;34.42;97746.41;5015127;28;20104;-35
2022/05/19 09:02:58;;;;;;;2.38;1.70;;;;;;;23.19;33.97;97746.50;5014910;28;20072;-33
2022/05/19 09:05:46;;;;;;;4.95;1.88;;;;;;;23.27;35.09;97742.09;5014856;28;20044;-33
2022/05/19 09:08:30;;;;;;;3.25;1.40;;;;;;;23.44;35.34;97738.81;5014833;28;20389;-33
2022/05/19 09:11:18;;;;;;;3.63;1.58;;;;;;;23.57;35.44;97748.38;5014720;28;20056;-33
2022/05/19 09:14:18;;;;;;;2.72;1.40;;;;;;;23.37;35.61;97742.75;5014948;28;20074;-33
2022/05/19 09:16:43;;;;;;;2.10;1.38;;;;;;;23.50;35.29;97747.97;5014941;28;20057;-33
2022/05/19 09:19:20;;;;;;;2.85;1.90;;;;;;;23.41;34.24;97745.31;5014737;28;20021;-33
2022/05/19 09:21:56;;;;;;;3.03;1.73;;;;;;;23.63;34.76;97737.34;5014686;28;20076;-34
2022/05/19 09:24:22;;;;;;;2.15;1.50;;;;;;;23.64;34.48;97741.66;5014440;28;20431;-33
2022/05/19 09:26:56;;;;;;;3.50;1.40;;;;;;;23.54;35.34;97754.09;5014646;28;20022;-33
2022/05/19 09:29:40;;;;;;;4.95;1.60;;;;;;;23.52;34.53;97753.81;5014391;28;20047;-33
2022/05/19 09:32:26;;;;;;;3.08;2.03;;;;;;;23.70;35.06;97752.81;5014508;28;20026;-34
2022/05/19 09:35:03;;;;;;;2.72;1.50;;;;;;;23.68;34.81;97750.53;5014760;28;20025;-33
2022/05/19 09:37:37;;;;;;;1.90;1.40;;;;;;;23.54;33.85;97748.56;5014293;28;20034;-33
2022/05/19 09:40:11;;;;;;;5.78;2.00;;;;;;;23.52;35.09;97756.59;5014281;28;20029;-33
2022/05/19 09:43:08;;;;;;;4.45;1.50;;;;;;;23.48;35.14;97751.25;5014200;28;20032;-33
2022/05/19 09:45:42;;;;;;;3.90;1.48;;;;;;;23.69;34.99;97752.06;5010248;28;20041;-33
2022/05/19 09:48:09;;;;;;;3.85;1.52;;;;;;;23.63;35.08;97756.75;5014134;28;20026;-32
2022/05/19 09:50:47;;;;;;;4.60;1.42;;;;;;;23.74;35.22;97747.84;5014012;28;20025;-33
2022/05/19 09:53:25;;;;;;;2.65;1.52;;;;;;;23.78;34.88;97753.94;5014106;28;20048;-34
2022/05/19 09:56:00;;;;;;;2.15;1.42;;;;;;;23.73;35.23;97741.56;5014069;28;20026;-33
2022/05/19 09:58:31;;;;;;;6.95;1.50;;;;;;;23.70;35.57;97752.81;5013967;28;20096;-33
2022/05/19 10:00:59;;;;;;;4.00;1.63;;;;;;;23.69;35.70;97740.97;5013925;28;20057;-32
2022/05/19 10:03:33;;;;;;;3.60;1.60;;;;;;;23.71;35.32;97746.81;5014310;28;20509;-33
2022/05/19 10:06:07;;;;;;;2.70;1.40;;;;;;;23.72;35.45;97753.88;5013620;28;20048;-33
2022/05/19 10:08:41;;;;;;;4.10;1.48;;;;;;;23.69;35.62;97748.53;5013873;28;20425;-33
2022/05/19 10:11:21;;;;;;;6.57;1.75;;;;;;;23.76;35.43;97748.88;5013803;28;20417;-33
2022/05/19 10:14:02;;;;;;;3.22;1.45;;;;;;;23.65;35.39;97748.72;5013645;28;20057;-33
2022/05/19 10:17:01;;;;;;;2.72;1.70;;;;;;;23.67;35.55;97751.78;5013747;28;20101;-33
2022/05/19 10:19:48;;;;;;;2.05;1.80;;;;;;;23.82;35.30;97746.19;5013302;28;20044;-33
2022/05/19 10:22:27;;;;;;;2.05;1.65;;;;;;;23.58;35.88;97754.69;5013800;28;20036;-33
2022/05/19 10:25:22;;;;;;;3.65;1.67;;;;;;;23.69;35.47;97748.53;5013792;28;20080;-33
2022/05/19 10:31:35;;;;;;;4.68;1.60;;;;;;;23.29;35.85;97739.63;4972698;28;20046;-33
2022/05/19 10:34:03;;;;;;;1.80;1.52;;;;;;;23.70;34.86;97739.75;4972508;28;20031;-34
2022/05/19 10:37:02;;;;;;;5.07;1.85;;;;;;;23.54;35.69;97735.47;4972556;28;20026;-36
2022/05/19 10:39:58;;;;;;;7.78;1.95;;;;;;;23.78;35.50;97740.84;4972310;28;20058;-34
2022/05/19 10:42:57;;;;;;;5.13;1.98;;;;;;;23.75;34.42;97738.28;4972057;28;20031;-39
2022/05/19 10:45:25;;;;;;;6.25;1.83;;;;;;;23.65;33.72;97726.56;4971324;28;20482;-39
2022/05/19 10:47:53;;;;;;;3.90;1.73;;;;;;;23.57;34.24;97719.91;4972098;28;20074;-36
2022/05/19 10:50:29;;;;;;;10.15;1.67;;;;;;;23.76;34.49;97729.47;4972337;28;20126;-37
2022/05/19 10:53:22;;;;;;;11.07;2.13;;;;;;;23.83;33.71;97725.56;4972453;28;20034;-36
2022/05/19 10:56:25;;;;;;;6.88;2.13;;;;;;;23.94;33.52;97720.91;4972135;28;20393;-31
2022/05/19 10:59:19;;;;;;;9.50;2.15;;;;;;;24.16;33.71;97722.44;4955945;28;20043;-30
2022/05/19 11:02:04;;;;;;;5.65;2.08;;;;;;;23.91;34.33;97724.66;4973672;28;20041;-33
2022/05/19 11:05:13;;;;;;;5.18;1.90;;;;;;;24.09;33.97;97725.63;5012494;28;20136;-33
2022/05/19 11:07:59;;;;;;;9.40;1.98;;;;;;;24.15;34.24;97723.69;4992732;28;20042;-32
2022/05/19 11:10:46;;;;;;;4.97;2.00;;;;;;;24.17;34.06;97727.50;4992704;28;20030;-33
2022/05/19 11:13:26;;;;;;;4.15;1.70;;;;;;;24.11;34.32;97728.69;4993090;28;20129;-33
2022/05/19 11:16:36;;;;;;;5.38;1.70;;;;;;;24.19;34.28;97725.00;4993409;28;20141;-34
2022/05/19 11:19:26;;;;;;;9.45;1.80;;;;;;;24.09;34.16;97718.09;4990652;28;20037;-34
2022/05/19 11:21:59;;;;;;;4.82;1.60;;;;;;;24.13;34.29;97721.38;4993431;28;20105;-34
2022/05/19 11:27:38;;;;;;;4.82;1.58;;;;;;;24.15;34.41;97715.38;4993716;28;20038;-34
2022/05/19 11:30:19;;;;;;;2.60;1.60;;;;;;;24.15;34.28;97716.13;4993502;28;20026;-33
2022/05/19 11:32:49;;;;;;;4.65;2.35;;;;;;;24.19;34.20;97704.84;4995185;28;20034;-33
2022/05/19 11:35:43;;;;;;;4.00;1.38;;;;;;;24.18;34.08;97700.53;4996956;28;20061;-33
2022/05/19 11:38:59;;;;;;;2.65;1.45;;;;;;;24.23;33.97;97705.44;4997083;28;20026;-32
2022/05/19 11:41:30;;;;;;;3.03;1.33;;;;;;;24.21;34.13;97705.13;4985141;28;20068;-33
2022/05/19 11:44:15;;;;;;;5.10;1.70;;;;;;;24.19;34.31;97704.84;4996837;28;20029;-33
2022/05/19 11:46:50;;;;;;;3.45;1.45;;;;;;;24.22;34.05;97707.44;4996690;28;20027;-33
2022/05/19 11:55:45;;;;;;;4.15;1.52;;;;;;;24.25;34.23;97700.13;4996206;28;20041;-33
2022/05/19 11:58:41;;;;;;;3.42;1.48;;;;;;;24.18;34.29;97708.84;4996540;28;20488;-35
2022/05/19 12:01:19;;;;;;;5.35;1.90;;;;;;;24.17;34.39;97699.00;4991729;28;20034;-32
2022/05/19 12:03:50;;;;;;;1.80;1.10;;;;;;;24.15;34.28;97691.19;4994877;28;20029;-33
2022/05/19 12:06:21;;;;;;;3.72;1.40;;;;;;;24.21;33.92;97694.78;4995553;28;20026;-33
2022/05/19 12:09:07;;;;;;;2.95;1.40;;;;;;;24.18;34.13;97698.53;4996533;28;20023;-34
2022/05/19 12:11:45;;;;;;;1.58;1.25;;;;;;;24.14;33.40;97695.19;4996384;28;20026;-35
2022/05/19 12:14:11;;;;;;;2.95;1.23;;;;;;;24.05;33.88;97700.13;4996052;28;20038;-33
2022/05/19 12:16:57;;;;;;;4.35;1.33;;;;;;;24.17;33.64;97688.69;4996248;28;20034;-33